Time;durP1;ratioP1;P1;durP2;ratioP2;P2;SDS_P1;SDS_P2;PMS_P1;PMS_P2;Temp;Humidity;BMP_temperature;BMP_pressure;BME280_temperature;BME280_humidity;BME280_pressure;Samples;Min_cycle;Max_cycle;Signal;HPM_P1;HPM_P2
2021/11/28 08:13:22;;;;;;;49.90;23.02;;;;;;;-145.42;100.00;46415.50;5018741;27;20415;-51
2021/11/28 08:15:47;;;;;;;57.30;26.35;;;;;;;-145.42;100.00;46427.09;5040780;28;20403;-54
2021/11/28 08:18:13;;;;;;;51.58;23.83;;;;;;;-145.42;100.00;46405.84;5046905;28;20047;-47
2021/11/28 08:22:28;;;;;;;49.75;23.08;;;;;;;-145.42;100.00;46419.38;5003130;27;20397;-54
2021/11/28 08:29:45;;;;;;;5.70;3.45;;;;;;;-145.42;61.25;46510.25;4983662;28;20941;-31
2021/11/28 08:33:24;;;;;;;4.75;2.20;;;;;;;-145.42;56.70;46459.97;5023091;27;60905;-23
2021/11/28 08:49:56;;;;;;;2.28;1.70;;;;;;;-145.42;53.98;46492.84;4986712;27;55428;-38
2021/11/28 08:52:22;;;;;;;6.45;1.92;;;;;;;-145.42;54.63;46500.56;4972875;28;20050;-36
2021/11/28 08:54:48;;;;;;;4.82;1.90;;;;;;;-145.42;68.99;46459.97;4992965;28;20081;-39
2021/11/28 08:57:14;;;;;;;7.00;2.13;;;;;;;-145.42;53.86;46494.78;4994892;28;20053;-52
2021/11/28 08:59:42;;;;;;;10.25;2.15;;;;;;;-145.42;54.91;46512.19;5004168;28;20050;-36
2021/11/28 09:02:09;;;;;;;17.10;2.60;;;;;;;-145.42;55.37;46512.19;5014477;28;20046;-45
2021/11/28 09:04:36;;;;;;;6.38;2.83;;;;;;;-145.42;55.75;46446.44;5016115;28;20104;-39
2021/11/28 09:09:37;;;;;;;11.35;3.28;;;;;;;-145.42;55.84;46481.25;5500830;23;20052;-49
2021/11/28 09:12:04;;;;;;;9.88;3.13;;;;;;;-145.42;55.98;46506.38;5032525;28;20511;-47
2021/11/28 09:44:52;;;;;;;9.43;4.13;;;;;;;-145.42;53.81;46492.84;4989102;28;20414;-47
2021/11/28 09:47:18;;;;;;;13.02;4.18;;;;;;;-145.42;53.58;46477.38;5008780;28;20100;-39
2021/11/28 09:49:45;;;;;;;11.13;4.13;;;;;;;-145.42;53.79;46500.56;4990961;28;20054;-43
2021/11/28 09:52:18;;;;;;;6.68;3.67;;;;;;;-145.42;53.38;46479.31;4990689;28;20437;-44
2021/11/28 09:54:46;;;;;;;9.70;4.38;;;;;;;-145.42;53.12;46516.03;4983027;28;20053;-48
2021/11/28 09:57:14;;;;;;;7.43;3.50;;;;;;;-145.42;53.30;46535.38;4986705;28;20438;-37
2021/11/28 09:59:43;;;;;;;5.25;3.30;;;;;;;-145.42;52.86;46490.91;4986914;28;20092;-37
2021/11/28 10:02:16;;;;;;;5.30;3.10;;;;;;;-145.42;52.08;46465.78;4993655;28;20042;-41
2021/11/28 10:04:42;;;;;;;6.65;3.35;;;;;;;-145.42;51.86;46463.84;4996683;28;20068;-38
2021/11/28 10:07:12;;;;;;;7.38;3.13;;;;;;;-145.42;52.03;46498.63;4989835;28;20049;-41
2021/11/28 10:09:38;;;;;;;7.75;3.15;;;;;;;-145.42;52.16;46483.19;4995502;28;20554;-46
2021/11/28 10:12:26;;;;;;;8.20;3.80;;;;;;;-145.42;52.33;46469.63;4990549;28;20127;-36
2021/11/28 10:14:58;;;;;;;4.28;2.85;;;;;;;-145.42;52.26;46479.31;4989246;28;20113;-43
2021/11/28 10:17:29;;;;;;;5.47;2.60;;;;;;;-145.42;52.31;46519.91;4995594;28;20039;-53
2021/11/28 10:20:00;;;;;;;6.30;3.05;;;;;;;-145.42;52.37;46487.03;4992669;28;20093;-49
2021/11/28 10:22:27;;;;;;;4.97;3.33;;;;;;;-145.42;52.45;46452.25;4990586;28;20042;-44
2021/11/28 10:25:05;;;;;;;4.68;3.10;;;;;;;-145.42;52.42;46465.78;4994601;28;20064;-47
2021/11/28 10:27:39;;;;;;;6.60;3.00;;;;;;;-145.42;52.19;46477.38;4987234;28;20133;-48
2021/11/28 10:30:08;;;;;;;7.40;3.17;;;;;;;-145.42;52.18;46496.72;4993106;28;20057;-41
2021/11/28 10:32:34;;;;;;;7.18;3.05;;;;;;;-145.42;51.66;46465.78;4995101;28;20063;-46
2021/11/28 10:35:00;;;;;;;7.68;3.28;;;;;;;-145.42;52.07;46459.97;4990761;28;20070;-44
2021/11/28 10:37:26;;;;;;;7.70;2.75;;;;;;;-145.42;52.05;46463.84;4997287;28;20378;-42
2021/11/28 10:39:58;;;;;;;10.85;2.85;;;;;;;-145.42;52.12;46502.50;4994080;28;20047;-42
2021/11/28 10:42:26;;;;;;;6.28;3.00;;;;;;;-145.42;52.04;46504.44;4984907;28;20042;-43
2021/11/28 10:45:14;;;;;;;5.45;3.03;;;;;;;-145.42;50.52;46494.78;4997903;28;20248;-47
2021/11/28 10:47:56;;;;;;;4.60;2.70;;;;;;;-145.42;51.23;46442.56;4998087;28;20397;-48
2021/11/28 10:50:26;;;;;;;4.38;2.80;;;;;;;-145.42;51.08;46483.19;4997923;28;20031;-43
2021/11/28 10:53:04;;;;;;;6.03;2.90;;;;;;;-145.42;51.19;46461.91;4996015;28;20050;-53
2021/11/28 10:55:38;;;;;;;7.60;3.22;;;;;;;-145.42;51.25;46454.16;4989854;28;20050;-46
2021/11/28 10:58:06;;;;;;;6.53;2.92;;;;;;;-145.42;51.34;46477.38;4983954;28;20044;-50
2021/11/28 11:00:33;;;;;;;5.97;2.78;;;;;;;-145.42;51.58;46459.97;4984790;28;20038;-59
2021/11/28 11:03:11;;;;;;;4.88;2.50;;;;;;;-145.42;51.66;46475.44;4976308;28;20065;-50
2021/11/28 11:05:37;;;;;;;7.68;2.53;;;;;;;-145.42;51.70;46465.78;4979016;28;20046;-54
2021/11/28 11:08:05;;;;;;;4.30;2.42;;;;;;;-145.42;51.26;46456.09;4984904;28;20520;-54
2021/11/28 11:10:35;;;;;;;8.60;2.90;;;;;;;-145.42;51.04;46527.66;4982081;28;20038;-55
2021/11/28 11:13:06;;;;;;;5.95;2.35;;;;;;;-145.42;50.73;46504.44;4983056;28;20050;-59
2021/11/28 11:15:38;;;;;;;3.92;3.28;;;;;;;-145.42;50.87;46496.72;4985965;28;20097;-60
